sensor_id;sensor_type;location;lat;lon;timestamp;pressure;altitude;pressure_sealevel;temperature;humidity
8717;BME280;4395;48.554;8.820;2023-02-28T00:00:21;96394.41;;;-2.31;85.90
8717;BME280;4395;48.554;8.820;2023-02-28T00:02:24;96294.25;;;-2.71;84.70
8717;BME280;4395;48.554;8.820;2023-02-28T00:04:27;96397.09;;;-2.14;85.39
8717;BME280;4395;48.554;8.820;2023-02-28T00:06:29;96370.06;;;-2.24;85.03
8717;BME280;4395;48.554;8.820;2023-02-28T00:08:32;96396.44;;;-2.00;84.03
8717;BME280;4395;48.554;8.820;2023-02-28T00:10:38;96334.34;;;-2.35;83.89
8717;BME280;4395;48.554;8.820;2023-02-28T00:12:41;96334.69;;;-2.30;83.95
8717;BME280;4395;48.554;8.820;2023-02-28T00:14:43;96366.16;;;-2.12;84.00
8717;BME280;4395;48.554;8.820;2023-02-28T00:16:46;96386.25;;;-2.03;84.44
8717;BME280;4395;48.554;8.820;2023-02-28T00:18:49;96385.94;;;-1.92;84.64
8717;BME280;4395;48.554;8.820;2023-02-28T00:20:52;96365.16;;;-2.19;84.34
8717;BME280;4395;48.554;8.820;2023-02-28T00:22:55;96385.41;;;-2.04;85.23
8717;BME280;4395;48.554;8.820;2023-02-28T00:24:58;96394.16;;;-1.95;84.13
8717;BME280;4395;48.554;8.820;2023-02-28T00:27:02;96396.78;;;-2.03;85.58
8717;BME280;4395;48.554;8.820;2023-02-28T00:29:05;96388.22;;;-1.89;84.66
8717;BME280;4395;48.554;8.820;2023-02-28T00:31:08;96389.72;;;-1.78;84.37
8717;BME280;4395;48.554;8.820;2023-02-28T00:33:11;96388.72;;;-1.77;83.63
8717;BME280;4395;48.554;8.820;2023-02-28T00:35:14;96377.34;;;-2.02;85.00
8717;BME280;4395;48.554;8.820;2023-02-28T00:37:17;96379.34;;;-1.88;85.56
8717;BME280;4395;48.554;8.820;2023-02-28T00:39:20;96388.91;;;-1.79;84.31
8717;BME280;4395;48.554;8.820;2023-02-28T00:41:23;96384.13;;;-1.83;84.65
8717;BME280;4395;48.554;8.820;2023-02-28T00:43:27;96381.66;;;-1.85;84.42
8717;BME280;4395;48.554;8.820;2023-02-28T00:45:30;96383.97;;;-1.82;84.58
8717;BME280;4395;48.554;8.820;2023-02-28T00:47:33;96381.66;;;-1.93;84.83
8717;BME280;4395;48.554;8.820;2023-02-28T00:49:36;96318.38;;;-2.42;85.64
8717;BME280;4395;48.554;8.820;2023-02-28T00:51:38;96379.66;;;-2.07;86.57
8717;BME280;4395;48.554;8.820;2023-02-28T00:53:41;96375.03;;;-2.13;87.10
8717;BME280;4395;48.554;8.820;2023-02-28T00:55:44;96380.66;;;-2.00;85.70
8717;BME280;4395;48.554;8.820;2023-02-28T00:57:46;96377.50;;;-2.12;86.41
8717;BME280;4395;48.554;8.820;2023-02-28T00:59:50;96383.75;;;-2.21;86.54
8717;BME280;4395;48.554;8.820;2023-02-28T01:01:55;96385.50;;;-2.38;86.62
8717;BME280;4395;48.554;8.820;2023-02-28T01:03:58;96384.69;;;-2.38;88.35
8717;BME280;4395;48.554;8.820;2023-02-28T01:06:01;96378.94;;;-2.34;87.68
8717;BME280;4395;48.554;8.820;2023-02-28T01:08:04;96360.44;;;-2.58;89.11
8717;BME280;4395;48.554;8.820;2023-02-28T01:10:09;96389.06;;;-2.55;88.22
8717;BME280;4395;48.554;8.820;2023-02-28T01:12:12;96388.66;;;-2.68;90.53
8717;BME280;4395;48.554;8.820;2023-02-28T01:14:16;96380.41;;;-2.73;90.61
8717;BME280;4395;48.554;8.820;2023-02-28T01:16:21;96386.03;;;-2.68;90.41
8717;BME280;4395;48.554;8.820;2023-02-28T01:18:24;96376.34;;;-2.68;90.41
8717;BME280;4395;48.554;8.820;2023-02-28T01:20:27;96380.25;;;-2.72;90.08
8717;BME280;4395;48.554;8.820;2023-02-28T01:22:30;96381.72;;;-2.77;90.77
8717;BME280;4395;48.554;8.820;2023-02-28T01:24:33;96226.44;;;-3.78;92.33
8717;BME280;4395;48.554;8.820;2023-02-28T01:26:35;96370.13;;;-2.93;92.70
8717;BME280;4395;48.554;8.820;2023-02-28T01:28:41;96365.59;;;-3.16;94.00
8717;BME280;4395;48.554;8.820;2023-02-28T01:30:47;96361.09;;;-3.24;94.95
8717;BME280;4395;48.554;8.820;2023-02-28T01:32:51;96376.56;;;-3.21;95.38
8717;BME280;4395;48.554;8.820;2023-02-28T01:34:54;96371.75;;;-3.00;94.76
8717;BME280;4395;48.554;8.820;2023-02-28T01:36:57;96281.72;;;-3.62;94.49
8717;BME280;4395;48.554;8.820;2023-02-28T01:39:00;96368.34;;;-2.92;94.22
8717;BME280;4395;48.554;8.820;2023-02-28T01:41:04;96364.22;;;-2.95;94.33
8717;BME280;4395;48.554;8.820;2023-02-28T01:43:19;96369.69;;;-3.14;95.10
8717;BME280;4395;48.554;8.820;2023-02-28T01:45:26;96302.47;;;-3.50;96.18
8717;BME280;4395;48.554;8.820;2023-02-28T01:47:32;96359.69;;;-3.10;95.49
8717;BME280;4395;48.554;8.820;2023-02-28T01:49:37;96359.69;;;-3.10;95.15
8717;BME280;4395;48.554;8.820;2023-02-28T01:51:44;96366.34;;;-3.24;96.40
8717;BME280;4395;48.554;8.820;2023-02-28T01:53:55;96341.56;;;-3.21;96.32
8717;BME280;4395;48.554;8.820;2023-02-28T01:55:59;96350.31;;;-3.13;96.28
8717;BME280;4395;48.554;8.820;2023-02-28T01:58:04;96351.09;;;-2.86;96.11
8717;BME280;4395;48.554;8.820;2023-02-28T02:00:10;96356.63;;;-2.98;95.53
8717;BME280;4395;48.554;8.820;2023-02-28T02:02:21;96374.88;;;-3.30;97.43
8717;BME280;4395;48.554;8.820;2023-02-28T02:04:27;96368.06;;;-3.15;97.20
8717;BME280;4395;48.554;8.820;2023-02-28T02:06:39;96355.97;;;-3.00;97.19
8717;BME280;4395;48.554;8.820;2023-02-28T02:08:44;96365.00;;;-3.02;97.10
8717;BME280;4395;48.554;8.820;2023-02-28T02:10:48;96362.88;;;-2.99;98.13
8717;BME280;4395;48.554;8.820;2023-02-28T02:13:09;96358.75;;;-3.01;97.13
8717;BME280;4395;48.554;8.820;2023-02-28T02:15:16;96279.69;;;-3.42;97.62
8717;BME280;4395;48.554;8.820;2023-02-28T02:17:26;96352.03;;;-2.96;97.86
8717;BME280;4395;48.554;8.820;2023-02-28T02:19:47;96349.50;;;-3.13;97.56
8717;BME280;4395;48.554;8.820;2023-02-28T02:22:20;96296.28;;;-3.41;98.43
8717;BME280;4395;48.554;8.820;2023-02-28T02:24:42;96341.09;;;-3.17;99.66
8717;BME280;4395;48.554;8.820;2023-02-28T02:27:17;96347.25;;;-3.34;100.00
8717;BME280;4395;48.554;8.820;2023-02-28T02:29:47;96342.81;;;-3.34;100.00
8717;BME280;4395;48.554;8.820;2023-02-28T02:32:17;96301.81;;;-3.52;100.00
8717;BME280;4395;48.554;8.820;2023-02-28T02:34:37;96339.09;;;-3.23;100.00
8717;BME280;4395;48.554;8.820;2023-02-28T02:36:47;96249.16;;;-3.95;100.00
8717;BME280;4395;48.554;8.820;2023-02-28T02:38:58;96336.81;;;-3.18;100.00
8717;BME280;4395;48.554;8.820;2023-02-28T02:41:09;96341.31;;;-3.36;100.00
8717;BME280;4395;48.554;8.820;2023-02-28T02:43:19;96150.34;;;-4.30;100.00
8717;BME280;4395;48.554;8.820;2023-02-28T02:45:25;96344.44;;;-3.07;100.00
8717;BME280;4395;48.554;8.820;2023-02-28T02:47:30;96229.53;;;-3.82;100.00
8717;BME280;4395;48.554;8.820;2023-02-28T02:49:40;96297.53;;;-3.19;100.00
8717;BME280;4395;48.554;8.820;2023-02-28T02:51:45;96340.81;;;-3.06;100.00
8717;BME280;4395;48.554;8.820;2023-02-28T02:53:52;96335.78;;;-3.25;100.00
8717;BME280;4395;48.554;8.820;2023-02-28T02:55:59;96346.09;;;-3.32;100.00
8717;BME280;4395;48.554;8.820;2023-02-28T02:58:09;96332.81;;;-3.30;100.00
8717;BME280;4395;48.554;8.820;2023-02-28T03:00:15;96322.66;;;-3.25;100.00
8717;BME280;4395;48.554;8.820;2023-02-28T03:02:21;96339.69;;;-3.03;100.00
8717;BME280;4395;48.554;8.820;2023-02-28T03:04:30;96303.03;;;-3.65;100.00
8717;BME280;4395;48.554;8.820;2023-02-28T03:06:36;96347.09;;;-3.33;100.00
8717;BME280;4395;48.554;8.820;2023-02-28T03:08:39;96277.13;;;-3.85;100.00
8717;BME280;4395;48.554;8.820;2023-02-28T03:10:44;96352.91;;;-3.21;100.00
8717;BME280;4395;48.554;8.820;2023-02-28T03:12:59;96347.97;;;-3.24;100.00
8717;BME280;4395;48.554;8.820;2023-02-28T03:15:12;96342.44;;;-3.13;100.00
8717;BME280;4395;48.554;8.820;2023-02-28T03:17:34;96352.91;;;-3.21;100.00
8717;BME280;4395;48.554;8.820;2023-02-28T03:19:47;96344.69;;;-3.18;100.00
8717;BME280;4395;48.554;8.820;2023-02-28T03:22:09;96340.41;;;-3.53;100.00
8717;BME280;4395;48.554;8.820;2023-02-28T03:24:19;96336.88;;;-3.36;100.00
8717;BME280;4395;48.554;8.820;2023-02-28T03:26:27;96310.50;;;-3.52;100.00
8717;BME280;4395;48.554;8.820;2023-02-28T03:28:34;96343.00;;;-3.27;100.00
8717;BME280;4395;48.554;8.820;2023-02-28T03:30:47;96343.72;;;-3.17;100.00
8717;BME280;4395;48.554;8.820;2023-02-28T03:32:57;96335.28;;;-3.29;100.00
8717;BME280;4395;48.554;8.820;2023-02-28T03:35:04;96229.59;;;-4.00;100.00
8717;BME280;4395;48.554;8.820;2023-02-28T03:37:15;96327.63;;;-3.14;100.00
8717;BME280;4395;48.554;8.820;2023-02-28T03:39:22;96333.84;;;-3.23;100.00
8717;BME280;4395;48.554;8.820;2023-02-28T03:41:31;96322.66;;;-3.25;100.00
8717;BME280;4395;48.554;8.820;2023-02-28T03:43:38;96323.00;;;-3.20;100.00
8717;BME280;4395;48.554;8.820;2023-02-28T03:45:43;96326.19;;;-3.08;100.00
8717;BME280;4395;48.554;8.820;2023-02-28T03:47:52;96252.84;;;-3.53;100.00
8717;BME280;4395;48.554;8.820;2023-02-28T03:49:59;96328.72;;;-2.91;100.00
8717;BME280;4395;48.554;8.820;2023-02-28T03:52:06;96330.50;;;-2.99;100.00
8717;BME280;4395;48.554;8.820;2023-02-28T03:54:13;96334.91;;;-3.08;100.00
8717;BME280;4395;48.554;8.820;2023-02-28T03:56:20;96305.34;;;-3.36;100.00
8717;BME280;4395;48.554;8.820;2023-02-28T03:58:28;96261.00;;;-3.65;100.00
8717;BME280;4395;48.554;8.820;2023-02-28T04:00:36;96328.09;;;-3.18;100.00
8717;BME280;4395;48.554;8.820;2023-02-28T04:02:40;96304.25;;;-3.25;100.00
8717;BME280;4395;48.554;8.820;2023-02-28T04:04:43;96328.16;;;-3.10;100.00
8717;BME280;4395;48.554;8.820;2023-02-28T04:06:49;96328.03;;;-3.35;100.00
8717;BME280;4395;48.554;8.820;2023-02-28T04:08:52;96257.72;;;-3.67;100.00
8717;BME280;4395;48.554;8.820;2023-02-28T04:11:00;96334.91;;;-3.08;100.00
8717;BME280;4395;48.554;8.820;2023-02-28T04:13:04;96333.06;;;-3.15;100.00
8717;BME280;4395;48.554;8.820;2023-02-28T04:15:08;96324.44;;;-3.26;100.00
8717;BME280;4395;48.554;8.820;2023-02-28T04:17:12;96323.63;;;-2.92;100.00
8717;BME280;4395;48.554;8.820;2023-02-28T04:19:15;96335.88;;;-3.09;100.00
8717;BME280;4395;48.554;8.820;2023-02-28T04:21:17;96250.94;;;-3.43;100.00
8717;BME280;4395;48.554;8.820;2023-02-28T04:23:22;96203.78;;;-3.79;100.00
8717;BME280;4395;48.554;8.820;2023-02-28T04:25:25;96337.00;;;-3.11;100.00
8717;BME280;4395;48.554;8.820;2023-02-28T04:27:29;96315.38;;;-3.31;100.00
8717;BME280;4395;48.554;8.820;2023-02-28T04:29:33;96339.47;;;-3.10;100.00
8717;BME280;4395;48.554;8.820;2023-02-28T04:31:36;96329.00;;;-3.02;100.00
8717;BME280;4395;48.554;8.820;2023-02-28T04:33:39;96334.97;;;-2.92;100.00
8717;BME280;4395;48.554;8.820;2023-02-28T04:35:42;96329.72;;;-2.83;100.00
8717;BME280;4395;48.554;8.820;2023-02-28T04:37:45;96298.66;;;-2.88;100.00
8717;BME280;4395;48.554;8.820;2023-02-28T04:39:47;96312.94;;;-2.91;100.00
8717;BME280;4395;48.554;8.820;2023-02-28T04:41:50;96323.13;;;-2.87;100.00
8717;BME280;4395;48.554;8.820;2023-02-28T04:43:54;96291.88;;;-2.99;100.00
8717;BME280;4395;48.554;8.820;2023-02-28T04:46:01;96321.13;;;-2.60;100.00
8717;BME280;4395;48.554;8.820;2023-02-28T04:48:04;96327.88;;;-2.57;100.00
8717;BME280;4395;48.554;8.820;2023-02-28T04:50:08;96314.81;;;-2.67;100.00
8717;BME280;4395;48.554;8.820;2023-02-28T04:52:11;96328.91;;;-2.42;100.00
8717;BME280;4395;48.554;8.820;2023-02-28T04:54:14;96327.75;;;-2.39;100.00
8717;BME280;4395;48.554;8.820;2023-02-28T04:56:18;96265.97;;;-2.77;100.00
8717;BME280;4395;48.554;8.820;2023-02-28T04:58:20;96302.84;;;-2.61;100.00
8717;BME280;4395;48.554;8.820;2023-02-28T05:00:25;96293.59;;;-2.73;100.00
8717;BME280;4395;48.554;8.820;2023-02-28T05:02:28;96323.28;;;-2.47;100.00
8717;BME280;4395;48.554;8.820;2023-02-28T05:04:31;96327.06;;;-2.49;100.00
8717;BME280;4395;48.554;8.820;2023-02-28T05:06:35;96322.78;;;-2.58;100.00
8717;BME280;4395;48.554;8.820;2023-02-28T05:08:38;96336.44;;;-2.47;100.00
8717;BME280;4395;48.554;8.820;2023-02-28T05:10:41;96341.09;;;-2.33;100.00
8717;BME280;4395;48.554;8.820;2023-02-28T05:12:44;96339.16;;;-2.65;100.00
8717;BME280;4395;48.554;8.820;2023-02-28T05:14:47;96337.59;;;-2.49;100.00
8717;BME280;4395;48.554;8.820;2023-02-28T05:16:51;96338.44;;;-2.49;100.00
8717;BME280;4395;48.554;8.820;2023-02-28T05:18:54;96330.88;;;-2.44;100.00
8717;BME280;4395;48.554;8.820;2023-02-28T05:20:57;96346.00;;;-2.46;100.00
8717;BME280;4395;48.554;8.820;2023-02-28T05:23:00;96339.75;;;-2.45;100.00
8717;BME280;4395;48.554;8.820;2023-02-28T05:25:05;96223.03;;;-3.36;100.00
8717;BME280;4395;48.554;8.820;2023-02-28T05:27:09;96341.06;;;-2.49;100.00
8717;BME280;4395;48.554;8.820;2023-02-28T05:29:12;96341.72;;;-2.47;100.00
8717;BME280;4395;48.554;8.820;2023-02-28T05:31:15;96338.59;;;-2.42;100.00
8717;BME280;4395;48.554;8.820;2023-02-28T05:33:19;96343.03;;;-2.43;100.00
8717;BME280;4395;48.554;8.820;2023-02-28T05:35:22;96338.72;;;-2.60;100.00
8717;BME280;4395;48.554;8.820;2023-02-28T05:37:25;96335.06;;;-2.67;100.00
8717;BME280;4395;48.554;8.820;2023-02-28T05:39:28;96340.91;;;-2.47;100.00
8717;BME280;4395;48.554;8.820;2023-02-28T05:41:31;96341.72;;;-2.47;100.00
8717;BME280;4395;48.554;8.820;2023-02-28T05:43:34;96335.66;;;-2.31;100.00
8717;BME280;4395;48.554;8.820;2023-02-28T05:45:37;96331.53;;;-2.34;100.00
8717;BME280;4395;48.554;8.820;2023-02-28T05:47:39;96335.31;;;-2.44;100.00
8717;BME280;4395;48.554;8.820;2023-02-28T05:49:43;96328.09;;;-2.34;100.00
8717;BME280;4395;48.554;8.820;2023-02-28T05:51:46;96338.63;;;-2.26;100.00
8717;BME280;4395;48.554;8.820;2023-02-28T05:53:49;96346.69;;;-2.28;100.00
8717;BME280;4395;48.554;8.820;2023-02-28T05:55:51;96343.56;;;-2.23;100.00
8717;BME280;4395;48.554;8.820;2023-02-28T05:57:54;96332.16;;;-2.56;100.00
8717;BME280;4395;48.554;8.820;2023-02-28T05:59:57;96345.34;;;-2.40;100.00
8717;BME280;4395;48.554;8.820;2023-02-28T06:02:00;96345.69;;;-2.35;100.00
8717;BME280;4395;48.554;8.820;2023-02-28T06:04:05;96339.09;;;-2.39;100.00
8717;BME280;4395;48.554;8.820;2023-02-28T06:06:10;96342.75;;;-2.32;100.00
8717;BME280;4395;48.554;8.820;2023-02-28T06:08:13;96344.06;;;-2.36;100.00
8717;BME280;4395;48.554;8.820;2023-02-28T06:10:16;96349.28;;;-2.52;100.00
8717;BME280;4395;48.554;8.820;2023-02-28T06:12:18;96352.56;;;-2.50;100.00
8717;BME280;4395;48.554;8.820;2023-02-28T06:14:21;96358.09;;;-2.61;100.00
8717;BME280;4395;48.554;8.820;2023-02-28T06:16:24;96358.84;;;-2.43;100.00
8717;BME280;4395;48.554;8.820;2023-02-28T06:18:27;96371.69;;;-2.32;100.00
8717;BME280;4395;48.554;8.820;2023-02-28T06:20:30;96369.44;;;-2.10;100.00
8717;BME280;4395;48.554;8.820;2023-02-28T06:22:34;96272.94;;;-2.60;100.00
8717;BME280;4395;48.554;8.820;2023-02-28T06:24:37;96370.28;;;-2.02;100.00
8717;BME280;4395;48.554;8.820;2023-02-28T06:26:40;96373.72;;;-2.09;100.00
8717;BME280;4395;48.554;8.820;2023-02-28T06:28:43;96328.47;;;-2.63;100.00
8717;BME280;4395;48.554;8.820;2023-02-28T06:30:46;96369.06;;;-2.32;100.00
8717;BME280;4395;48.554;8.820;2023-02-28T06:32:48;96377.31;;;-2.27;100.00
8717;BME280;4395;48.554;8.820;2023-02-28T06:34:51;96369.84;;;-2.47;100.00
8717;BME280;4395;48.554;8.820;2023-02-28T06:36:54;96375.00;;;-2.30;100.00
8717;BME280;4395;48.554;8.820;2023-02-28T06:38:58;96375.19;;;-2.23;100.00
8717;BME280;4395;48.554;8.820;2023-02-28T06:41:02;96384.38;;;-2.27;100.00
8717;BME280;4395;48.554;8.820;2023-02-28T06:43:05;96372.00;;;-2.43;100.00
8717;BME280;4395;48.554;8.820;2023-02-28T06:45:09;96381.88;;;-2.45;100.00
8717;BME280;4395;48.554;8.820;2023-02-28T06:47:12;96381.94;;;-2.20;100.00
8717;BME280;4395;48.554;8.820;2023-02-28T06:49:15;96338.59;;;-2.42;100.00
8717;BME280;4395;48.554;8.820;2023-02-28T06:51:19;96386.06;;;-2.10;100.00
8717;BME280;4395;48.554;8.820;2023-02-28T06:53:23;96386.53;;;-2.22;100.00
8717;BME280;4395;48.554;8.820;2023-02-28T06:55:27;96382.28;;;-2.15;100.00
8717;BME280;4395;48.554;8.820;2023-02-28T06:57:32;96379.31;;;-2.12;100.00
8717;BME280;4395;48.554;8.820;2023-02-28T06:59:35;96389.19;;;-2.14;100.00
8717;BME280;4395;48.554;8.820;2023-02-28T07:01:38;96393.31;;;-2.12;100.00
8717;BME280;4395;48.554;8.820;2023-02-28T07:03:41;96390.50;;;-2.10;100.00
8717;BME280;4395;48.554;8.820;2023-02-28T07:05:44;96378.03;;;-1.92;100.00
8717;BME280;4395;48.554;8.820;2023-02-28T07:07:47;96381.28;;;-2.06;100.00
8717;BME280;4395;48.554;8.820;2023-02-28T07:09:50;96388.22;;;-2.05;100.00
8717;BME280;4395;48.554;8.820;2023-02-28T07:11:54;96386.94;;;-1.77;100.00
8717;BME280;4395;48.554;8.820;2023-02-28T07:13:57;96399.75;;;-1.90;100.00
8717;BME280;4395;48.554;8.820;2023-02-28T07:16:01;96346.03;;;-2.30;100.00
8717;BME280;4395;48.554;8.820;2023-02-28T07:18:05;96391.19;;;-1.84;100.00
8717;BME280;4395;48.554;8.820;2023-02-28T07:20:08;96400.91;;;-1.84;100.00
8717;BME280;4395;48.554;8.820;2023-02-28T07:22:11;96404.03;;;-1.89;100.00
8717;BME280;4395;48.554;8.820;2023-02-28T07:24:16;96404.03;;;-1.89;100.00
8717;BME280;4395;48.554;8.820;2023-02-28T07:26:20;96388.22;;;-1.89;100.00
8717;BME280;4395;48.554;8.820;2023-02-28T07:28:24;96398.56;;;-2.12;100.00
8717;BME280;4395;48.554;8.820;2023-02-28T07:30:27;96387.88;;;-2.02;100.00
8717;BME280;4395;48.554;8.820;2023-02-28T07:32:30;96407.34;;;-1.87;100.00
8717;BME280;4395;48.554;8.820;2023-02-28T07:34:33;96393.84;;;-1.59;100.00
8717;BME280;4395;48.554;8.820;2023-02-28T07:36:35;96397.47;;;-1.60;100.00
8717;BME280;4395;48.554;8.820;2023-02-28T07:38:38;96394.34;;;-1.56;100.00
8717;BME280;4395;48.554;8.820;2023-02-28T07:40:41;96396.66;;;-1.45;100.00
8717;BME280;4395;48.554;8.820;2023-02-28T07:42:44;96383.63;;;-1.63;100.00
8717;BME280;4395;48.554;8.820;2023-02-28T07:44:52;96397.78;;;-1.39;100.00
8717;BME280;4395;48.554;8.820;2023-02-28T07:46:55;96410.97;;;-1.39;100.00
8717;BME280;4395;48.554;8.820;2023-02-28T07:48:57;96355.63;;;-1.80;100.00
8717;BME280;4395;48.554;8.820;2023-02-28T07:51:02;96405.06;;;-1.49;100.00
8717;BME280;4395;48.554;8.820;2023-02-28T07:53:05;96402.41;;;-1.57;100.00
8717;BME280;4395;48.554;8.820;2023-02-28T07:55:08;96287.44;;;-2.32;100.00
8717;BME280;4395;48.554;8.820;2023-02-28T07:57:11;96407.53;;;-1.56;100.00
8717;BME280;4395;48.554;8.820;2023-02-28T07:59:14;96241.34;;;-2.52;100.00
8717;BME280;4395;48.554;8.820;2023-02-28T08:01:18;96399.09;;;-1.27;100.00
8717;BME280;4395;48.554;8.820;2023-02-28T08:03:22;96409.00;;;-1.37;100.00
8717;BME280;4395;48.554;8.820;2023-02-28T08:05:25;96414.28;;;-1.29;100.00
8717;BME280;4395;48.554;8.820;2023-02-28T08:07:28;96404.06;;;-1.32;100.00
8717;BME280;4395;48.554;8.820;2023-02-28T08:09:31;96420.53;;;-1.30;100.00
8717;BME280;4395;48.554;8.820;2023-02-28T08:11:34;96407.34;;;-1.38;100.00
8717;BME280;4395;48.554;8.820;2023-02-28T08:13:37;96418.88;;;-1.23;100.00
8717;BME280;4395;48.554;8.820;2023-02-28T08:15:40;96408.84;;;-1.36;100.00
8717;BME280;4395;48.554;8.820;2023-02-28T08:17:44;96411.31;;;-1.26;100.00
8717;BME280;4395;48.554;8.820;2023-02-28T08:19:48;96423.81;;;-1.12;100.00
8717;BME280;4395;48.554;8.820;2023-02-28T08:21:51;96432.72;;;-1.13;100.00
8717;BME280;4395;48.554;8.820;2023-02-28T08:23:54;96434.03;;;-1.09;100.00
8717;BME280;4395;48.554;8.820;2023-02-28T08:25:58;96432.53;;;-1.11;100.00
8717;BME280;4395;48.554;8.820;2023-02-28T08:28:01;96428.56;;;-0.99;100.00
8717;BME280;4395;48.554;8.820;2023-02-28T08:30:04;96364.19;;;-1.62;100.00
8717;BME280;4395;48.554;8.820;2023-02-28T08:32:07;96438.63;;;-1.03;100.00
8717;BME280;4395;48.554;8.820;2023-02-28T08:34:30;96426.59;;;-0.97;100.00
8717;BME280;4395;48.554;8.820;2023-02-28T08:36:33;96438.00;;;-1.13;100.00
8717;BME280;4395;48.554;8.820;2023-02-28T08:38:37;96422.63;;;-0.93;100.00
8717;BME280;4395;48.554;8.820;2023-02-28T08:40:39;96434.97;;;-0.77;100.00
8717;BME280;4395;48.554;8.820;2023-02-28T08:42:42;96433.16;;;-0.77;100.00
8717;BME280;4395;48.554;8.820;2023-02-28T08:44:45;96423.72;;;-0.71;100.00
8717;BME280;4395;48.554;8.820;2023-02-28T08:46:48;96442.38;;;-0.73;100.00
8717;BME280;4395;48.554;8.820;2023-02-28T08:48:51;96437.25;;;-0.66;100.00
8717;BME280;4395;48.554;8.820;2023-02-28T08:50:57;96438.72;;;-0.63;100.00
8717;BME280;4395;48.554;8.820;2023-02-28T08:53:08;96430.34;;;-0.75;100.00
8717;BME280;4395;48.554;8.820;2023-02-28T08:55:11;96448.59;;;-0.57;100.00
8717;BME280;4395;48.554;8.820;2023-02-28T08:57:13;96408.41;;;-0.76;100.00
8717;BME280;4395;48.554;8.820;2023-02-28T08:59:16;96454.19;;;-0.52;100.00
8717;BME280;4395;48.554;8.820;2023-02-28T09:01:21;96428.00;;;-0.62;100.00
8717;BME280;4395;48.554;8.820;2023-02-28T09:03:24;96444.13;;;-0.57;100.00
8717;BME280;4395;48.554;8.820;2023-02-28T09:05:28;96448.03;;;-0.37;100.00
8717;BME280;4395;48.554;8.820;2023-02-28T09:07:32;96452.38;;;-0.52;100.00
8717;BME280;4395;48.554;8.820;2023-02-28T09:09:35;96452.50;;;-0.37;100.00
8717;BME280;4395;48.554;8.820;2023-02-28T09:11:38;96386.16;;;-0.89;100.00
8717;BME280;4395;48.554;8.820;2023-02-28T09:13:41;96453.03;;;-0.50;99.91
8717;BME280;4395;48.554;8.820;2023-02-28T09:15:44;96431.94;;;-0.58;100.00
8717;BME280;4395;48.554;8.820;2023-02-28T09:17:46;96461.38;;;-0.30;99.94
8717;BME280;4395;48.554;8.820;2023-02-28T09:19:49;96455.13;;;-0.37;99.37
8717;BME280;4395;48.554;8.820;2023-02-28T09:21:52;96456.66;;;-0.51;99.18
8717;BME280;4395;48.554;8.820;2023-02-28T09:23:56;96464.94;;;-0.54;99.31
8717;BME280;4395;48.554;8.820;2023-02-28T09:25:59;96456.81;;;-0.44;98.19
8717;BME280;4395;48.554;8.820;2023-02-28T09:28:02;96347.78;;;-1.08;98.98
8717;BME280;4395;48.554;8.820;2023-02-28T09:30:07;96458.78;;;-0.46;99.20
8717;BME280;4395;48.554;8.820;2023-02-28T09:32:10;96455.66;;;-0.42;98.67
8717;BME280;4395;48.554;8.820;2023-02-28T09:34:13;96447.25;;;-0.45;98.25
8717;BME280;4395;48.554;8.820;2023-02-28T09:36:15;96428.13;;;-0.55;98.37
8717;BME280;4395;48.554;8.820;2023-02-28T09:38:18;96455.28;;;-0.30;98.60
8717;BME280;4395;48.554;8.820;2023-02-28T09:40:24;96410.09;;;-0.44;97.61
8717;BME280;4395;48.554;8.820;2023-02-28T09:42:31;96461.09;;;-0.04;97.05
8717;BME280;4395;48.554;8.820;2023-02-28T09:44:37;96468.66;;;-0.32;97.64
8717;BME280;4395;48.554;8.820;2023-02-28T09:46:44;96466.59;;;-0.14;95.77
8717;BME280;4395;48.554;8.820;2023-02-28T09:48:49;96463.78;;;-0.12;95.46
8717;BME280;4395;48.554;8.820;2023-02-28T09:50:59;96463.25;;;0.01;95.44
8717;BME280;4395;48.554;8.820;2023-02-28T09:53:06;96465.94;;;-0.16;94.17
8717;BME280;4395;48.554;8.820;2023-02-28T09:55:20;96460.75;;;-0.01;93.54
8717;BME280;4395;48.554;8.820;2023-02-28T09:57:32;96464.06;;;0.01;93.39
8717;BME280;4395;48.554;8.820;2023-02-28T10:02:08;96355.50;;;-0.51;90.43
8717;BME280;4395;48.554;8.820;2023-02-28T10:04:19;96478.47;;;0.29;90.60
8717;BME280;4395;48.554;8.820;2023-02-28T10:06:35;96481.06;;;0.38;90.01
8717;BME280;4395;48.554;8.820;2023-02-28T10:08:42;96469.72;;;0.52;88.97
8717;BME280;4395;48.554;8.820;2023-02-28T10:10:50;96469.56;;;0.53;87.75
8717;BME280;4395;48.554;8.820;2023-02-28T10:12:58;96484.13;;;0.49;86.60
8717;BME280;4395;48.554;8.820;2023-02-28T10:15:01;96483.66;;;0.46;87.70
8717;BME280;4395;48.554;8.820;2023-02-28T10:17:11;96445.19;;;0.12;87.20
8717;BME280;4395;48.554;8.820;2023-02-28T10:19:17;96489.28;;;0.43;87.08
8717;BME280;4395;48.554;8.820;2023-02-28T10:21:26;96433.75;;;0.20;86.57
8717;BME280;4395;48.554;8.820;2023-02-28T10:23:34;96486.94;;;0.48;86.73
8717;BME280;4395;48.554;8.820;2023-02-28T10:25:38;96482.59;;;0.55;87.18
8717;BME280;4395;48.554;8.820;2023-02-28T10:27:42;96488.34;;;0.81;86.21
8717;BME280;4395;48.554;8.820;2023-02-28T10:29:48;96490.34;;;0.79;84.89
8717;BME280;4395;48.554;8.820;2023-02-28T10:31:51;96502.47;;;0.96;84.84
8717;BME280;4395;48.554;8.820;2023-02-28T10:33:54;96481.50;;;1.10;83.01
8717;BME280;4395;48.554;8.820;2023-02-28T10:35:57;96484.97;;;1.10;82.63
8717;BME280;4395;48.554;8.820;2023-02-28T10:38:10;96399.25;;;0.59;81.40
8717;BME280;4395;48.554;8.820;2023-02-28T10:40:30;96476.56;;;1.07;82.33
8717;BME280;4395;48.554;8.820;2023-02-28T10:42:34;96472.84;;;1.16;81.33
8717;BME280;4395;48.554;8.820;2023-02-28T10:44:40;96489.84;;;1.21;80.80
8717;BME280;4395;48.554;8.820;2023-02-28T10:46:45;96490.59;;;1.30;80.38
8717;BME280;4395;48.554;8.820;2023-02-28T10:48:57;96491.03;;;1.34;80.84
8717;BME280;4395;48.554;8.820;2023-02-28T10:51:05;96468.75;;;1.28;80.47
8717;BME280;4395;48.554;8.820;2023-02-28T10:53:28;96422.59;;;0.93;79.24
8717;BME280;4395;48.554;8.820;2023-02-28T10:55:42;96487.94;;;1.30;79.99
8717;BME280;4395;48.554;8.820;2023-02-28T10:57:46;96484.47;;;1.29;79.58
8717;BME280;4395;48.554;8.820;2023-02-28T10:59:50;96492.72;;;1.49;78.76
8717;BME280;4395;48.554;8.820;2023-02-28T11:01:55;96489.63;;;1.60;77.62
8717;BME280;4395;48.554;8.820;2023-02-28T11:03:58;96489.69;;;1.38;78.81
8717;BME280;4395;48.554;8.820;2023-02-28T11:06:06;96490.31;;;1.40;78.87
8717;BME280;4395;48.554;8.820;2023-02-28T11:08:12;96496.91;;;1.58;78.72
8717;BME280;4395;48.554;8.820;2023-02-28T11:10:20;96487.97;;;1.59;76.98
8717;BME280;4395;48.554;8.820;2023-02-28T11:12:25;96502.50;;;1.78;76.24
8717;BME280;4395;48.554;8.820;2023-02-28T11:14:31;96474.44;;;1.54;75.27
8717;BME280;4395;48.554;8.820;2023-02-28T11:16:37;96469.59;;;1.73;74.64
8717;BME280;4395;48.554;8.820;2023-02-28T11:18:46;96496.91;;;1.88;74.15
8717;BME280;4395;48.554;8.820;2023-02-28T11:20:51;96507.69;;;2.01;73.62